Weather at Akureyri Airport

Public forecast

Using degrees Celsius for public forecast. Weather courtesy of forecast.io.

Current aviation weather report (METAR) for Akureyri Airport

Retrieved 2020/10/21 12:00 UTC (38 minutes ago):

BIAR 211200Z 19002KT 9999 FEW045 BKN052 M00/M02 Q1010

Aviation forecast (TAF) for Akureyri Airport

Retrieved 2020/10/21 12:55 UTC (0 seconds ago):

TAF BIAR 211053Z 2112/2212 VRB02KT 9999 BKN045 TX04/2114Z TNM02/2203Z BECMG 2115/2117 14008KT BECMG 2206/2208 VRB02KT CAVOK